Aviation Digital Data Service (ADDS)

Output produced by METARs form (0733 UTC 22 January 2021)
found at http://aviationweather.gov/metar/data/
 
METAR text: KCHD 220347Z 17007KT 10SM BKN100 16/09 A3001 RMK LAST
Conditions at: KCHD (CHANDLER , AZ, US) observed 0347 UTC 22 January 2021
Temperature: 16.0°C (61°F)
Dewpoint: 9.0°C (48°F) [RH = 63%]
Pressure (altimeter): 30.01 inches Hg (1016.3 mb)
Winds: from the S (170 degrees) at 8 MPH (7 knots; 3.6 m/s)
Visibility: 10 or more miles (16+ km)
Ceiling: 10000 feet AGL
Clouds: broken clouds at 10000 feet AGL
Weather: no significant weather observed at this time

METAR text: KCHD 220247Z 18007KT 10SM BKN100 17/09 A2999
Conditions at: KCHD (CHANDLER , AZ, US) observed 0247 UTC 22 January 2021
Temperature: 17.0°C (63°F)
Dewpoint: 9.0°C (48°F) [RH = 59%]
Pressure (altimeter): 29.99 inches Hg (1015.7 mb)
Winds: from the S (180 degrees) at 8 MPH (7 knots; 3.6 m/s)
Visibility: 10 or more miles (16+ km)
Ceiling: 10000 feet AGL
Clouds: broken clouds at 10000 feet AGL
Weather: no significant weather observed at this time

METAR text: KCHD 220147Z 18008KT 10SM BKN100 18/08 A2997
Conditions at: KCHD (CHANDLER , AZ, US) observed 0147 UTC 22 January 2021
Temperature: 18.0°C (64°F)
Dewpoint: 8.0°C (46°F) [RH = 52%]
Pressure (altimeter): 29.97 inches Hg (1015.0 mb)
Winds: from the S (180 degrees) at 9 MPH (8 knots; 4.1 m/s)
Visibility: 10 or more miles (16+ km)
Ceiling: 10000 feet AGL
Clouds: broken clouds at 10000 feet AGL
Weather: no significant weather observed at this time

METAR text: KCHD 220047Z 19010KT 10SM SCT100 19/09 A2996
Conditions at: KCHD (CHANDLER , AZ, US) observed 0047 UTC 22 January 2021
Temperature: 19.0°C (66°F)
Dewpoint: 9.0°C (48°F) [RH = 52%]
Pressure (altimeter): 29.96 inches Hg (1014.6 mb)
Winds: from the S (190 degrees) at 12 MPH (10 knots; 5.1 m/s)
Visibility: 10 or more miles (16+ km)
Ceiling: at least 12,000 feet AGL
Clouds: scattered clouds at 10000 feet AGL
Weather: no significant weather observed at this time

METAR text: KCHD 212347Z 17006KT 10SM FEW120 21/07 A2994
Conditions at: KCHD (CHANDLER , AZ, US) observed 2347 UTC 21 January 2021
Temperature: 21.0°C (70°F)
Dewpoint: 7.0°C (45°F) [RH = 40%]
Pressure (altimeter): 29.94 inches Hg (1014.0 mb)
Winds: from the S (170 degrees) at 7 MPH (6 knots; 3.1 m/s)
Visibility: 10 or more miles (16+ km)
Ceiling: at least 12,000 feet AGL
Clouds: few clouds at 12000 feet AGL
Weather: no significant weather observed at this time

METAR text: KCHD 212247Z 15005KT 10SM FEW150 21/08 A2994
Conditions at: KCHD (CHANDLER , AZ, US) observed 2247 UTC 21 January 2021
Temperature: 21.0°C (70°F)
Dewpoint: 8.0°C (46°F) [RH = 43%]
Pressure (altimeter): 29.94 inches Hg (1014.0 mb)
Winds: from the SSE (150 degrees) at 6 MPH (5 knots; 2.6 m/s)
Visibility: 10 or more miles (16+ km)
Ceiling: at least 12,000 feet AGL
Clouds: few clouds at 15000 feet AGL
Weather: no significant weather observed at this time

METAR text: KCHD 212147Z VRB04KT 10SM FEW150 21/09 A2995
Conditions at: KCHD (CHANDLER , AZ, US) observed 2147 UTC 21 January 2021
Temperature: 21.0°C (70°F)
Dewpoint: 9.0°C (48°F) [RH = 46%]
Pressure (altimeter): 29.95 inches Hg (1014.3 mb)
Winds: variable direction winds at 5 MPH (4 knots; 2.1 m/s)
Visibility: 10 or more miles (16+ km)
Ceiling: at least 12,000 feet AGL
Clouds: few clouds at 15000 feet AGL
Weather: no significant weather observed at this time

METAR text: KCHD 212055Z VRB04KT 10SM SKC 20/08 A2996
Conditions at: KCHD (CHANDLER , AZ, US) observed 2055 UTC 21 January 2021
Temperature: 20.0°C (68°F)
Dewpoint: 8.0°C (46°F) [RH = 46%]
Pressure (altimeter): 29.96 inches Hg (1014.6 mb)
Winds: variable direction winds at 5 MPH (4 knots; 2.1 m/s)
Visibility: 10 or more miles (16+ km)
Ceiling: at least 12,000 feet AGL
Clouds: clear skies
Weather: no significant weather observed at this time

METAR text: KCHD 211947Z 11006KT 10SM FEW060 SCT070 SCT095 18/09 A2997
Conditions at: KCHD (CHANDLER , AZ, US) observed 1947 UTC 21 January 2021
Temperature: 18.0°C (64°F)
Dewpoint: 9.0°C (48°F) [RH = 56%]
Pressure (altimeter): 29.97 inches Hg (1015.0 mb)
Winds: from the ESE (110 degrees) at 7 MPH (6 knots; 3.1 m/s)
Visibility: 10 or more miles (16+ km)
Ceiling: at least 12,000 feet AGL
Clouds: few clouds at 6000 feet AGL
scattered clouds at 7000 feet AGL
scattered clouds at 9500 feet AGL
Weather: no significant weather observed at this time